createdAt,value
2018-10-12T00:01:16.453Z,13.20
2018-10-12T00:03:46.976Z,13.16
2018-10-12T00:06:17.375Z,13.25
2018-10-12T00:08:47.748Z,13.19
2018-10-12T00:11:18.255Z,13.15
2018-10-12T00:13:48.737Z,13.09
2018-10-12T00:16:19.246Z,12.95
2018-10-12T00:18:49.661Z,12.96
2018-10-12T00:21:20.076Z,12.92
2018-10-12T00:23:50.528Z,13.01
2018-10-12T00:26:21.011Z,12.99
2018-10-12T00:28:51.539Z,13.00
2018-10-12T00:31:22.128Z,13.02
2018-10-12T00:33:52.582Z,12.98
2018-10-12T00:36:23.068Z,13.06
2018-10-12T00:38:53.296Z,13.04
2018-10-12T00:41:23.713Z,12.98
2018-10-12T00:43:54.090Z,13.07
2018-10-12T00:46:24.593Z,13.02
2018-10-12T00:48:55.096Z,13.02
2018-10-12T00:51:25.410Z,12.90
2018-10-12T00:53:55.930Z,12.85
2018-10-12T00:56:26.311Z,12.84
2018-10-12T00:58:57.144Z,12.81
2018-10-12T01:01:27.476Z,12.88
2018-10-12T01:03:57.703Z,12.85
2018-10-12T01:06:28.159Z,12.82
2018-10-12T01:08:58.709Z,12.87
2018-10-12T01:11:29.073Z,12.86
2018-10-12T01:13:59.811Z,12.80
2018-10-12T01:16:30.271Z,12.91
2018-10-12T01:19:00.854Z,12.81
2018-10-12T01:21:31.549Z,12.85
2018-10-12T01:24:02.097Z,12.84
2018-10-12T01:26:32.835Z,12.87
2018-10-12T01:29:03.340Z,12.95
2018-10-12T01:31:33.683Z,12.94
2018-10-12T01:34:04.205Z,13.00
2018-10-12T01:36:34.749Z,12.96
2018-10-12T01:39:05.607Z,12.94
2018-10-12T01:41:36.139Z,12.96
2018-10-12T01:44:06.728Z,12.96
2018-10-12T01:46:37.215Z,12.92
2018-10-12T01:49:07.803Z,12.87
2018-10-12T01:51:38.393Z,12.93
2018-10-12T01:54:09.024Z,12.86
2018-10-12T01:56:39.647Z,12.96
2018-10-12T01:59:10.080Z,12.93
2018-10-12T02:01:40.531Z,12.98
2018-10-12T02:04:10.992Z,13.11
2018-10-12T02:06:41.884Z,13.04
2018-10-12T02:09:12.180Z,13.02
2018-10-12T02:11:42.601Z,12.97
2018-10-12T02:14:12.937Z,12.93
2018-10-12T02:16:43.191Z,12.90
2018-10-12T02:19:13.768Z,12.89
2018-10-12T02:21:44.246Z,12.69
2018-10-12T02:24:14.576Z,12.72
2018-10-12T02:26:45.126Z,12.77
2018-10-12T02:29:15.447Z,12.73
2018-10-12T02:31:46.003Z,12.73
2018-10-12T02:34:16.362Z,12.69
2018-10-12T02:36:46.769Z,12.72
2018-10-12T02:39:17.272Z,12.79
2018-10-12T02:41:47.820Z,12.76
2018-10-12T02:44:18.224Z,12.78
2018-10-12T02:46:48.591Z,12.82
2018-10-12T02:49:18.961Z,12.85
2018-10-12T02:51:49.380Z,12.86
2018-10-12T02:54:19.726Z,12.88
2018-10-12T02:56:50.187Z,12.88
2018-10-12T02:59:20.448Z,12.91
2018-10-12T03:01:50.944Z,12.87
2018-10-12T03:04:21.333Z,12.88
2018-10-12T03:06:51.701Z,12.87
2018-10-12T03:09:22.100Z,12.84
2018-10-12T03:11:52.364Z,12.95
2018-10-12T03:14:22.720Z,13.00
2018-10-12T03:16:53.323Z,12.97
2018-10-12T03:19:23.830Z,12.82
2018-10-12T03:21:54.194Z,12.75
2018-10-12T03:24:25.708Z,12.68
2018-10-12T03:26:56.043Z,12.70
2018-10-12T03:29:26.684Z,12.67
2018-10-12T03:31:57.354Z,12.62
2018-10-12T03:34:28.110Z,12.51
2018-10-12T03:36:58.792Z,12.56
2018-10-12T03:39:29.440Z,12.47
2018-10-12T03:41:59.911Z,12.44
2018-10-12T03:44:30.301Z,12.50
2018-10-12T03:47:00.946Z,12.58
2018-10-12T03:49:31.371Z,12.49
2018-10-12T03:52:04.594Z,12.45
2018-10-12T03:54:35.178Z,12.37
2018-10-12T03:57:05.630Z,12.32
2018-10-12T03:59:36.041Z,12.23
2018-10-12T04:02:06.315Z,12.10
2018-10-12T04:04:36.572Z,12.00
2018-10-12T04:07:07.468Z,11.97
2018-10-12T04:09:37.955Z,11.97
2018-10-12T04:12:09.112Z,11.94
2018-10-12T04:14:39.541Z,11.97
2018-10-12T04:17:10.038Z,12.05
2018-10-12T04:19:40.414Z,11.98
2018-10-12T04:22:10.863Z,11.97
2018-10-12T04:24:41.029Z,11.83
2018-10-12T04:27:11.516Z,11.72
2018-10-12T04:29:41.936Z,11.75
2018-10-12T04:32:12.315Z,11.74
2018-10-12T04:34:42.552Z,11.78
2018-10-12T04:37:13.082Z,11.82
2018-10-12T04:41:20.749Z,11.82
2018-10-12T04:43:52.600Z,12.04
2018-10-12T04:46:34.351Z,12.25
2018-10-12T04:49:06.527Z,12.37
2018-10-12T04:51:42.982Z,12.42
2018-10-12T04:54:13.512Z,12.46
2018-10-12T04:56:44.277Z,12.56
2018-10-12T04:59:14.888Z,12.54
2018-10-12T05:01:45.509Z,12.57
2018-10-12T05:04:15.967Z,12.60
2018-10-12T05:06:46.559Z,12.51
2018-10-12T05:09:17.199Z,12.58
2018-10-12T05:11:47.660Z,12.57
2018-10-12T05:14:18.702Z,12.52
2018-10-12T05:16:49.231Z,12.44
2018-10-12T05:19:19.659Z,12.43
2018-10-12T05:21:50.096Z,12.67
2018-10-12T05:24:20.536Z,12.80
2018-10-12T05:26:51.131Z,12.83
2018-10-12T05:29:21.373Z,12.68
2018-10-12T05:31:51.785Z,12.58
2018-10-12T05:34:22.254Z,12.36
2018-10-12T05:36:52.836Z,12.32
2018-10-12T05:39:23.343Z,12.23
2018-10-12T05:41:53.852Z,12.17
2018-10-12T05:44:24.623Z,12.05
2018-10-12T05:46:55.187Z,12.11
2018-10-12T05:49:42.036Z,12.03
2018-10-12T05:52:12.549Z,12.05
2018-10-12T05:54:43.136Z,11.94
2018-10-12T05:57:13.996Z,11.85
2018-10-12T05:59:44.616Z,11.84
2018-10-12T06:02:15.229Z,11.92
2018-10-12T06:04:45.984Z,11.99
2018-10-12T06:07:17.600Z,12.00
2018-10-12T06:09:48.421Z,12.01
2018-10-12T06:12:19.262Z,12.82
2018-10-12T06:17:50.605Z,14.91
2018-10-12T06:20:21.037Z,15.49
2018-10-12T06:22:51.340Z,16.16
2018-10-12T06:25:21.804Z,16.76
2018-10-12T06:27:52.218Z,17.10
2018-10-12T06:30:22.601Z,17.35
2018-10-12T06:32:53.063Z,18.47
2018-10-12T06:35:23.336Z,18.84
2018-10-12T06:37:53.812Z,19.33
2018-10-12T06:40:24.337Z,19.28
2018-10-12T06:42:54.719Z,19.11
2018-10-12T06:45:25.028Z,19.41
2018-10-12T06:47:55.349Z,20.28
2018-10-12T06:50:25.807Z,20.98
2018-10-12T06:52:56.361Z,21.42
2018-10-12T06:55:26.878Z,21.77
2018-10-12T06:57:57.504Z,21.75
2018-10-12T07:00:28.074Z,21.80
2018-10-12T07:02:58.792Z,21.79
2018-10-12T07:05:29.487Z,21.55
2018-10-12T07:08:00.300Z,21.23
2018-10-12T07:10:31.184Z,21.83
2018-10-12T07:13:01.928Z,22.76
2018-10-12T07:15:33.276Z,23.08
2018-10-12T07:18:03.676Z,23.32
2018-10-12T07:20:34.204Z,23.14
2018-10-12T07:23:04.937Z,23.39
2018-10-12T07:25:35.291Z,23.80
2018-10-12T07:28:06.597Z,23.86
2018-10-12T07:30:37.959Z,23.42
2018-10-12T07:33:08.348Z,23.38
2018-10-12T07:35:38.850Z,23.81
2018-10-12T07:38:09.384Z,24.05
2018-10-12T07:40:39.687Z,24.12
2018-10-12T07:43:10.152Z,23.79
2018-10-12T07:45:40.522Z,23.55
2018-10-12T07:48:10.867Z,23.52
2018-10-12T07:50:41.349Z,24.14
2018-10-12T07:53:11.897Z,24.62
2018-10-12T07:55:42.359Z,24.82
2018-10-12T07:58:13.335Z,25.20
2018-10-12T08:00:44.231Z,25.36
2018-10-12T08:03:14.752Z,25.79
2018-10-12T08:05:45.211Z,25.50
2018-10-12T08:08:16.196Z,26.30
2018-10-12T08:10:46.792Z,26.15
2018-10-12T08:13:17.293Z,27.03
2018-10-12T08:15:47.917Z,27.00
2018-10-12T08:18:18.404Z,27.36
2018-10-12T08:20:48.987Z,27.60
2018-10-12T08:23:19.307Z,27.39
2018-10-12T08:25:50.468Z,27.58
2018-10-12T08:28:21.200Z,27.79
2018-10-12T08:30:51.533Z,27.44
2018-10-12T08:33:22.077Z,27.70
2018-10-12T08:35:52.782Z,27.68
2018-10-12T08:38:23.230Z,27.41
2018-10-12T08:40:53.725Z,27.60
2018-10-12T08:43:24.055Z,27.42
2018-10-12T08:45:54.450Z,27.46
2018-10-12T08:48:24.923Z,27.09
2018-10-12T08:50:55.886Z,26.75
2018-10-12T08:53:26.307Z,26.88
2018-10-12T08:55:56.891Z,26.63
2018-10-12T08:58:27.279Z,26.34
2018-10-12T09:00:57.520Z,26.13
2018-10-12T09:03:27.925Z,26.07
2018-10-12T09:05:58.502Z,25.87
2018-10-12T09:08:29.692Z,25.76
2018-10-12T09:11:00.096Z,26.07
2018-10-12T09:13:30.454Z,26.11
2018-10-12T09:16:02.311Z,25.77
2018-10-12T09:18:32.990Z,25.64
2018-10-12T09:21:03.752Z,25.56
2018-10-12T09:23:34.147Z,25.41
2018-10-12T09:26:04.750Z,25.40
2018-10-12T09:28:35.109Z,25.27
2018-10-12T09:31:05.641Z,25.30
2018-10-12T09:33:35.964Z,25.32
2018-10-12T09:36:06.612Z,24.99
2018-10-12T09:38:37.204Z,25.10
2018-10-12T09:41:07.793Z,25.41
2018-10-12T09:43:38.298Z,25.25
2018-10-12T09:46:08.732Z,25.18
2018-10-12T09:48:38.971Z,25.00
2018-10-12T09:51:09.532Z,25.09
2018-10-12T09:53:40.507Z,25.17
2018-10-12T09:56:11.080Z,25.24
2018-10-12T09:58:41.530Z,25.29
2018-10-12T10:01:16.984Z,25.28
2018-10-12T10:03:52.240Z,25.39
2018-10-12T10:06:22.677Z,25.24
2018-10-12T10:08:53.284Z,25.34
2018-10-12T10:11:23.761Z,25.38
2018-10-12T10:13:54.551Z,25.45
2018-10-12T10:16:25.203Z,25.23
2018-10-12T10:18:55.674Z,25.45
2018-10-12T10:21:26.060Z,25.39
2018-10-12T10:23:56.279Z,25.44
2018-10-12T10:26:26.918Z,25.29
2018-10-12T10:28:57.324Z,25.23
2018-10-12T10:31:27.790Z,25.32
2018-10-12T10:33:58.294Z,25.45
2018-10-12T10:36:28.558Z,25.57
2018-10-12T10:38:59.188Z,25.44
2018-10-12T10:41:29.712Z,25.51
2018-10-12T10:44:00.131Z,25.58
2018-10-12T10:46:30.727Z,25.73
2018-10-12T10:49:01.235Z,25.51
2018-10-12T10:51:31.597Z,25.62
2018-10-12T10:54:01.937Z,25.42
2018-10-12T10:56:32.332Z,24.95
2018-10-12T10:59:02.915Z,25.12
2018-10-12T11:01:33.473Z,24.84
2018-10-12T11:04:03.862Z,24.80
2018-10-12T11:06:34.246Z,25.22
2018-10-12T11:09:05.774Z,25.10
2018-10-12T11:11:36.034Z,25.20
2018-10-12T11:14:06.491Z,25.25
2018-10-12T11:16:37.072Z,25.39
2018-10-12T11:19:07.477Z,25.47
2018-10-12T11:21:37.969Z,25.41
2018-10-12T11:24:08.703Z,25.37
2018-10-12T11:26:39.282Z,25.50
2018-10-12T11:29:09.695Z,25.50
2018-10-12T11:31:40.165Z,25.50
2018-10-12T11:34:10.655Z,25.34
2018-10-12T11:36:41.322Z,25.33
2018-10-12T11:39:14.487Z,25.41
2018-10-12T11:41:45.116Z,25.32
2018-10-12T11:44:15.336Z,25.42
2018-10-12T11:46:45.756Z,25.40
2018-10-12T11:49:16.315Z,25.28
2018-10-12T11:51:46.814Z,25.11
2018-10-12T11:54:17.188Z,25.23
2018-10-12T11:56:47.632Z,25.23
2018-10-12T11:59:17.913Z,25.22
2018-10-12T12:01:48.552Z,25.06
2018-10-12T12:04:19.172Z,25.29
2018-10-12T12:06:50.049Z,25.41
2018-10-12T12:09:20.384Z,25.40
2018-10-12T12:11:50.925Z,25.23
2018-10-12T12:14:21.349Z,25.21
2018-10-12T12:16:51.823Z,25.20
2018-10-12T12:19:22.155Z,25.28
2018-10-12T12:21:52.444Z,25.28
2018-10-12T12:24:22.771Z,25.14
2018-10-12T12:26:53.357Z,25.06
2018-10-12T12:29:23.612Z,25.02
2018-10-12T12:31:54.372Z,24.97
2018-10-12T12:34:24.763Z,25.06
2018-10-12T12:36:55.145Z,24.99
2018-10-12T12:39:25.552Z,25.18
2018-10-12T12:41:56.631Z,25.22
2018-10-12T12:44:26.924Z,25.25
2018-10-12T12:47:03.445Z,25.33
2018-10-12T12:49:33.986Z,25.17
2018-10-12T12:52:04.278Z,25.22
2018-10-12T12:54:34.713Z,25.28
2018-10-12T12:57:05.316Z,25.30
2018-10-12T12:59:36.161Z,25.19
2018-10-12T13:02:06.763Z,25.18
2018-10-12T13:04:37.124Z,25.19
2018-10-12T13:07:07.623Z,25.23
2018-10-12T13:09:37.861Z,25.29
2018-10-12T13:12:08.352Z,25.37
2018-10-12T13:14:38.736Z,25.34
2018-10-12T13:17:09.320Z,25.30
2018-10-12T13:19:40.435Z,25.33
2018-10-12T13:22:11.171Z,25.39
2018-10-12T13:24:41.566Z,25.34
2018-10-12T13:27:12.175Z,25.46
2018-10-12T13:29:42.784Z,25.41
2018-10-12T13:32:12.995Z,25.42
2018-10-12T13:34:43.419Z,25.40
2018-10-12T13:37:13.879Z,25.41
2018-10-12T13:39:44.185Z,25.33
2018-10-12T13:42:14.423Z,25.37
2018-10-12T13:44:44.829Z,25.34
2018-10-12T13:47:15.241Z,25.34
2018-10-12T13:49:45.815Z,25.34
2018-10-12T13:52:16.425Z,25.37
2018-10-12T13:54:46.672Z,25.27
2018-10-12T13:57:16.951Z,25.14
2018-10-12T13:59:47.292Z,25.18
2018-10-12T14:02:17.766Z,25.19
2018-10-12T14:04:48.155Z,25.15
2018-10-12T14:07:18.653Z,25.14
2018-10-12T14:09:48.901Z,25.18
2018-10-12T14:12:19.433Z,25.25
2018-10-12T14:14:50.574Z,25.22
2018-10-12T14:17:21.078Z,25.22
2018-10-12T14:19:51.386Z,25.21
2018-10-12T14:22:21.725Z,25.17
2018-10-12T14:24:52.244Z,25.11
2018-10-12T14:27:22.835Z,25.15
2018-10-12T14:29:53.311Z,25.16
2018-10-12T14:32:23.647Z,25.15
2018-10-12T14:34:53.954Z,25.06
2018-10-12T14:37:24.357Z,25.08
2018-10-12T14:39:54.799Z,25.04
2018-10-12T14:42:25.316Z,24.98
2018-10-12T14:44:55.940Z,24.97
2018-10-12T14:47:26.629Z,24.91
2018-10-12T14:49:57.030Z,24.85
2018-10-12T14:52:27.419Z,24.79
2018-10-12T14:54:57.832Z,24.74
2018-10-12T14:57:29.055Z,24.66
2018-10-12T14:59:59.596Z,24.67
2018-10-12T15:02:30.274Z,24.68
2018-10-12T15:05:00.568Z,24.62
2018-10-12T15:07:31.041Z,24.53
2018-10-12T15:10:01.537Z,24.39
2018-10-12T15:12:31.913Z,24.32
2018-10-12T15:15:19.726Z,24.34
2018-10-12T15:17:51.092Z,24.21
2018-10-12T15:20:21.839Z,24.07
2018-10-12T15:22:52.428Z,24.01
2018-10-12T15:25:22.939Z,24.00
2018-10-12T15:27:53.411Z,23.83
2018-10-12T15:30:23.920Z,23.77
2018-10-12T15:32:54.401Z,23.67
2018-10-12T15:35:24.979Z,23.55
2018-10-12T15:37:55.463Z,23.44
2018-10-12T15:40:26.644Z,23.44
2018-10-12T15:42:57.349Z,23.30
2018-10-12T15:45:27.600Z,23.19
2018-10-12T15:47:57.997Z,23.15
2018-10-12T15:50:28.276Z,23.04
2018-10-12T15:52:58.539Z,22.96
2018-10-12T15:55:28.944Z,22.90
2018-10-12T15:57:59.216Z,22.71
2018-10-12T16:00:47.265Z,22.63
2018-10-12T16:03:17.820Z,22.58
2018-10-12T16:05:48.272Z,22.42
2018-10-12T16:08:18.827Z,22.30
2018-10-12T16:10:49.223Z,22.23
2018-10-12T16:13:19.975Z,22.08
2018-10-12T16:15:50.756Z,22.04
2018-10-12T16:18:21.263Z,21.88
2018-10-12T16:20:51.566Z,21.69
2018-10-12T16:23:22.927Z,21.61
2018-10-12T16:26:10.112Z,21.50
2018-10-12T16:28:40.556Z,21.37
2018-10-12T16:31:11.187Z,21.26
2018-10-12T16:33:41.775Z,21.15
2018-10-12T16:36:12.105Z,21.12
2018-10-12T16:38:42.567Z,21.11
2018-10-12T16:41:12.778Z,21.10
2018-10-12T16:43:43.275Z,21.05
2018-10-12T16:46:13.588Z,20.85
2018-10-12T16:48:44.072Z,20.81
2018-10-12T16:51:14.425Z,20.73
2018-10-12T16:53:44.819Z,20.57
2018-10-12T16:56:15.202Z,20.49
2018-10-12T16:58:45.708Z,20.38
2018-10-12T17:01:16.167Z,20.29
2018-10-12T17:03:46.661Z,20.19
2018-10-12T17:06:17.123Z,20.12
2018-10-12T17:08:47.491Z,20.01
2018-10-12T17:11:18.120Z,19.99
2018-10-12T17:13:48.507Z,19.91
2018-10-12T17:16:18.746Z,19.90
2018-10-12T17:18:49.127Z,19.83
2018-10-12T17:21:19.380Z,19.74
2018-10-12T17:23:49.726Z,19.70
2018-10-12T17:26:20.051Z,19.56
2018-10-12T17:28:50.528Z,19.45
2018-10-12T17:31:21.023Z,19.37
2018-10-12T17:33:51.255Z,19.51
2018-10-12T17:36:21.584Z,19.36
2018-10-12T17:38:52.035Z,19.28
2018-10-12T17:41:22.590Z,19.22
2018-10-12T17:43:53.251Z,19.22
2018-10-12T17:46:23.715Z,19.41
2018-10-12T17:48:54.051Z,19.27
2018-10-12T17:51:24.372Z,19.23
2018-10-12T17:53:54.704Z,19.18
2018-10-12T17:56:25.135Z,19.04
2018-10-12T17:58:55.617Z,19.09
2018-10-12T18:01:26.320Z,19.02
2018-10-12T18:03:56.522Z,19.00
2018-10-12T18:06:26.929Z,18.91
2018-10-12T18:08:57.482Z,18.93
2018-10-12T18:11:27.976Z,18.92
2018-10-12T18:13:58.424Z,18.85
2018-10-12T18:16:29.489Z,18.78
2018-10-12T18:18:59.856Z,18.83
2018-10-12T18:21:30.256Z,18.82
2018-10-12T18:24:00.584Z,19.03
2018-10-12T18:26:31.188Z,18.94
2018-10-12T18:29:01.754Z,18.78
2018-10-12T18:31:32.759Z,18.61
2018-10-12T18:34:03.262Z,18.53
2018-10-12T18:36:34.360Z,18.43
2018-10-12T18:39:06.048Z,18.32
2018-10-12T18:41:36.559Z,18.30
2018-10-12T18:44:07.153Z,18.23
2018-10-12T18:46:37.653Z,18.23
2018-10-12T18:49:07.981Z,18.20
2018-10-12T18:51:38.277Z,18.29
2018-10-12T18:54:08.804Z,18.34
2018-10-12T18:56:39.344Z,18.28
2018-10-12T18:59:10.176Z,18.21
2018-10-12T19:01:40.606Z,18.19
2018-10-12T19:04:11.008Z,18.22
2018-10-12T19:06:41.556Z,18.11
2018-10-12T19:09:12.092Z,17.98
2018-10-12T19:11:42.490Z,17.89
2018-10-12T19:14:13.038Z,17.79
2018-10-12T19:16:43.947Z,17.67
2018-10-12T19:19:14.386Z,17.68
2018-10-12T19:21:44.824Z,17.66
2018-10-12T19:24:15.205Z,17.64
2018-10-12T19:26:45.548Z,17.71
2018-10-12T19:29:15.885Z,17.64
2018-10-12T19:31:46.328Z,17.62
2018-10-12T19:34:16.689Z,17.52
2018-10-12T19:36:47.463Z,17.43
2018-10-12T19:39:17.956Z,17.28
2018-10-12T19:41:48.459Z,17.22
2018-10-12T19:44:18.800Z,17.16
2018-10-12T19:46:49.096Z,17.14
2018-10-12T19:49:19.447Z,17.16
2018-10-12T19:51:49.841Z,17.32
2018-10-12T19:54:20.229Z,17.49
2018-10-12T19:56:50.541Z,17.45
2018-10-12T19:59:21.127Z,17.76
2018-10-12T20:01:51.536Z,17.78
2018-10-12T20:04:21.832Z,17.78
2018-10-12T20:06:52.416Z,17.79
2018-10-12T20:09:22.924Z,17.81
2018-10-12T20:11:53.180Z,17.71
2018-10-12T20:14:24.059Z,17.70
2018-10-12T20:16:54.564Z,17.60
2018-10-12T20:19:25.112Z,17.59
2018-10-12T20:21:55.526Z,17.68
2018-10-12T20:24:26.036Z,17.68
2018-10-12T20:26:56.536Z,17.60
2018-10-12T20:29:27.009Z,17.57
2018-10-12T20:31:57.973Z,17.56
2018-10-12T20:34:28.341Z,17.45
2018-10-12T20:36:58.846Z,17.37
2018-10-12T20:39:29.296Z,17.31
2018-10-12T20:41:59.698Z,17.20
2018-10-12T20:44:30.077Z,17.30
2018-10-12T20:47:00.442Z,17.33
2018-10-12T20:49:31.037Z,17.21
2018-10-12T20:52:01.499Z,17.22
2018-10-12T20:54:31.960Z,17.11
2018-10-12T20:57:02.563Z,17.00
2018-10-12T20:59:33.180Z,17.04
2018-10-12T21:02:03.656Z,17.03
2018-10-12T21:04:33.891Z,16.91
2018-10-12T21:07:04.220Z,16.84
2018-10-12T21:09:34.554Z,16.81
2018-10-12T21:12:05.068Z,16.82
2018-10-12T21:14:35.462Z,16.79
2018-10-12T21:17:05.834Z,16.74
2018-10-12T21:19:36.384Z,16.64
2018-10-12T21:22:06.695Z,16.59
2018-10-12T21:24:37.055Z,16.59
2018-10-12T21:27:07.740Z,16.58
2018-10-12T21:29:37.991Z,16.55
2018-10-12T21:32:08.534Z,16.52
2018-10-12T21:34:38.883Z,16.54
2018-10-12T21:37:09.382Z,16.53
2018-10-12T21:39:39.810Z,16.47
2018-10-12T21:42:10.352Z,16.39
2018-10-12T21:44:40.685Z,16.41
2018-10-12T21:47:11.277Z,16.52
2018-10-12T21:49:41.688Z,16.50
2018-10-12T21:52:12.140Z,16.48
2018-10-12T21:54:42.534Z,16.52
2018-10-12T21:57:12.815Z,16.54
2018-10-12T21:59:43.312Z,16.52
2018-10-12T22:02:13.783Z,16.60
2018-10-12T22:04:44.280Z,16.60
2018-10-12T22:07:14.772Z,16.54
2018-10-12T22:09:45.063Z,16.54
2018-10-12T22:12:15.448Z,16.46
2018-10-12T22:14:46.064Z,16.32
2018-10-12T22:17:16.372Z,16.22
2018-10-12T22:19:46.605Z,16.21
2018-10-12T22:22:16.917Z,16.15
2018-10-12T22:24:47.382Z,16.07
2018-10-12T22:27:17.693Z,16.03
2018-10-12T22:29:48.039Z,16.04
2018-10-12T22:32:18.327Z,15.96
2018-10-12T22:34:48.797Z,15.92
2018-10-12T22:37:19.356Z,15.89
2018-10-12T22:39:49.884Z,15.90
2018-10-12T22:42:20.492Z,15.83
2018-10-12T22:44:51.071Z,15.79
2018-10-12T22:47:21.316Z,15.77
2018-10-12T22:49:51.688Z,15.70
2018-10-12T22:52:21.971Z,15.67
2018-10-12T22:54:52.384Z,15.69
2018-10-12T22:57:22.721Z,15.58
2018-10-12T22:59:53.319Z,15.62
2018-10-12T23:02:23.699Z,15.54
2018-10-12T23:04:54.286Z,15.45
2018-10-12T23:07:24.788Z,15.42
2018-10-12T23:09:55.146Z,15.43
2018-10-12T23:12:25.447Z,15.30
2018-10-12T23:14:55.866Z,15.28
2018-10-12T23:17:26.371Z,15.32
2018-10-12T23:19:56.884Z,15.27
2018-10-12T23:22:27.363Z,15.20
2018-10-12T23:24:57.611Z,15.17
2018-10-12T23:27:28.113Z,15.15
2018-10-12T23:29:58.576Z,15.13
2018-10-12T23:32:28.996Z,15.04
2018-10-12T23:34:59.419Z,15.00
2018-10-12T23:37:29.731Z,15.04
2018-10-12T23:40:00.203Z,15.01
2018-10-12T23:42:30.865Z,14.99
2018-10-12T23:45:01.419Z,14.91
2018-10-12T23:47:32.086Z,14.88
2018-10-12T23:50:02.566Z,14.83
2018-10-12T23:52:33.624Z,14.81
2018-10-12T23:55:04.256Z,14.73
2018-10-12T23:57:34.735Z,14.56
